Time;durP1;ratioP1;P1;durP2;ratioP2;P2;SDS_P1;SDS_P2;PMS_P1;PMS_P2;Temp;Humidity;BMP_temperature;BMP_pressure;BME280_temperature;BME280_humidity;BME280_pressure;Samples;Min_cycle;Max_cycle;Signal;HPM_P1;HPM_P2
2022/12/10 00:01:56;;;;;;;54.28;23.77;;;-1.80;99.90;;;;;;5119329;27;20065;-86
2022/12/10 00:04:22;;;;;;;50.53;23.75;;;-1.80;99.90;;;;;;5103440;27;20070;-86
2022/12/10 00:06:48;;;;;;;55.25;24.13;;;-1.70;99.90;;;;;;5116817;27;20082;-87
2022/12/10 00:09:18;;;;;;;45.08;20.23;;;-1.70;99.90;;;;;;5108967;27;20512;-86
2022/12/10 00:11:44;;;;;;;58.00;24.73;;;-1.70;99.90;;;;;;5137097;27;20454;-86
2022/12/10 00:14:12;;;;;;;52.55;22.02;;;-1.70;99.90;;;;;;5118443;27;20050;-86
2022/12/10 00:16:38;;;;;;;53.83;23.45;;;-1.60;99.90;;;;;;5114572;27;20039;-86
2022/12/10 00:19:03;;;;;;;47.47;21.77;;;-1.70;99.90;;;;;;5112676;27;20545;-86
2022/12/10 00:21:34;;;;;;;57.72;22.55;;;-1.70;99.90;;;;;;5114855;27;20039;-86
2022/12/10 00:24:01;;;;;;;51.67;22.25;;;-1.70;99.90;;;;;;5114019;27;20062;-86
2022/12/10 00:26:31;;;;;;;48.30;21.63;;;-1.70;99.90;;;;;;5098312;27;20489;-88
2022/12/10 00:28:57;;;;;;;53.67;23.25;;;-1.70;99.90;;;;;;5132200;27;20165;-87
2022/12/10 00:31:26;;;;;;;53.08;22.00;;;-1.70;99.90;;;;;;5120260;27;20427;-86
2022/12/10 00:33:57;;;;;;;52.22;22.65;;;-1.70;99.90;;;;;;5123141;27;20043;-86
2022/12/10 00:36:26;;;;;;;51.67;22.77;;;-1.80;99.90;;;;;;5115612;27;20051;-87
2022/12/10 00:38:52;;;;;;;51.08;23.17;;;-1.80;99.90;;;;;;5100795;27;20043;-86
2022/12/10 00:41:17;;;;;;;49.58;21.92;;;-1.80;99.90;;;;;;5117485;27;20956;-86
2022/12/10 00:43:47;;;;;;;51.67;22.45;;;-1.80;99.90;;;;;;5098951;27;20035;-85
2022/12/10 00:46:14;;;;;;;46.88;21.83;;;-1.90;99.90;;;;;;5097221;27;20040;-86
2022/12/10 00:48:41;;;;;;;48.63;21.15;;;-1.90;99.90;;;;;;5115557;27;20055;-86
2022/12/10 00:51:39;;;;;;;47.55;22.65;;;-2.00;99.90;;;;;;5098622;27;20063;-86
2022/12/10 00:54:05;;;;;;;47.20;22.30;;;-2.00;99.90;;;;;;5091317;27;20063;-87
2022/12/10 00:56:32;;;;;;;47.78;22.90;;;-2.00;99.90;;;;;;5128989;27;20050;-87
2022/12/10 00:59:01;;;;;;;53.55;23.70;;;-2.00;99.90;;;;;;5110583;28;20050;-87
2022/12/10 01:01:29;;;;;;;56.83;23.73;;;-2.00;99.90;;;;;;5109978;28;20100;-86
2022/12/10 01:03:58;;;;;;;51.15;23.35;;;-2.00;99.90;;;;;;5114966;28;20042;-86
2022/12/10 01:06:30;;;;;;;57.35;23.15;;;-1.90;99.90;;;;;;5112756;27;20039;-84
2022/12/10 01:08:58;;;;;;;47.25;21.90;;;-2.00;99.90;;;;;;5133819;27;20473;-87
2022/12/10 01:11:27;;;;;;;47.45;22.17;;;-2.00;99.90;;;;;;5105170;27;20657;-89
2022/12/10 01:13:56;;;;;;;50.35;23.08;;;-0.90;99.90;;;;;;5112749;27;20047;-87
2022/12/10 01:16:22;;;;;;;50.75;22.83;;;-2.10;99.90;;;;;;5095440;27;20047;-89
2022/12/10 01:18:48;;;;;;;45.97;21.70;;;-2.10;99.90;;;;;;5109709;27;20513;-89
2022/12/10 01:21:18;;;;;;;48.92;22.33;;;-1.30;99.90;;;;;;5113687;27;20047;-88
2022/12/10 01:23:46;;;;;;;50.20;23.23;;;-2.20;99.90;;;;;;5120836;27;20047;-89
2022/12/10 01:26:14;;;;;;;53.65;23.33;;;-2.20;99.90;;;;;;5095759;28;20501;-89
2022/12/10 01:28:45;;;;;;;53.40;23.83;;;-2.20;99.90;;;;;;5096790;28;20482;-90
2022/12/10 01:31:17;;;;;;;50.65;22.75;;;-1.10;99.90;;;;;;5096899;28;20066;-89
2022/12/10 01:33:43;;;;;;;49.05;22.40;;;-2.20;99.90;;;;;;5111954;28;20055;-89
2022/12/10 01:36:12;;;;;;;51.78;22.02;;;-2.30;99.90;;;;;;5095456;28;20505;-89
2022/12/10 01:38:38;;;;;;;47.90;22.80;;;-2.30;99.90;;;;;;5112607;27;20043;-88
2022/12/10 01:41:05;;;;;;;57.05;25.13;;;-2.30;99.90;;;;;;5095373;28;20061;-88
2022/12/10 01:43:52;;;;;;;55.28;24.90;;;-2.40;99.90;;;;;;5112349;28;20055;-89
2022/12/10 01:46:19;;;;;;;47.58;23.73;;;-2.30;99.90;;;;;;5093856;28;20055;-88
2022/12/10 01:48:45;;;;;;;54.38;23.90;;;-2.40;99.90;;;;;;5106363;28;20070;-88
2022/12/10 01:51:13;;;;;;;53.90;23.35;;;-2.40;99.90;;;;;;5113751;28;20533;-88
2022/12/10 01:53:38;;;;;;;55.25;23.90;;;-2.50;99.90;;;;;;5128207;27;20078;-87
2022/12/10 01:56:04;;;;;;;59.58;26.25;;;-2.40;99.90;;;;;;5099333;27;20074;-87
2022/12/10 01:58:30;;;;;;;59.03;25.95;;;-2.40;99.90;;;;;;5099264;27;20039;-88
2022/12/10 02:01:16;;;;;;;55.88;24.52;;;-2.40;99.90;;;;;;5134254;27;20042;-89
2022/12/10 02:04:19;;;;;;;57.70;23.90;;;-2.40;99.90;;;;;;5111349;27;20039;-89
2022/12/10 02:06:54;;;;;;;57.60;23.85;;;-2.40;99.90;;;;;;5119312;27;20074;-88
2022/12/10 02:09:38;;;;;;;60.78;25.33;;;-2.40;99.90;;;;;;5113987;27;20522;-87
2022/12/10 02:12:32;;;;;;;56.50;25.17;;;-2.50;99.90;;;;;;5078180;28;20084;-88
2022/12/10 02:15:26;;;;;;;54.75;23.85;;;-2.50;99.90;;;;;;5096424;28;20052;-89
2022/12/10 02:18:05;;;;;;;58.88;25.40;;;-2.50;99.90;;;;;;5092870;28;20193;-89
2022/12/10 02:20:41;;;;;;;54.08;23.90;;;-2.60;99.90;;;;;;5078467;28;20050;-88
2022/12/10 02:23:16;;;;;;;58.42;23.88;;;-2.60;99.90;;;;;;5088877;27;20070;-89
2022/12/10 02:25:52;;;;;;;54.50;26.58;;;-2.60;99.90;;;;;;5098603;27;20130;-89
2022/12/10 02:28:32;;;;;;;57.13;26.13;;;-2.60;99.90;;;;;;5099862;27;20047;-88
2022/12/10 02:30:59;;;;;;;58.42;24.67;;;-2.60;99.90;;;;;;5099597;27;20047;-88
2022/12/10 02:33:27;;;;;;;67.68;27.55;;;-2.70;99.90;;;;;;5098703;27;20054;-88
2022/12/10 02:35:57;;;;;;;65.82;26.27;;;-2.70;99.90;;;;;;5099330;27;20085;-88
2022/12/10 02:38:35;;;;;;;58.47;26.17;;;-2.60;99.90;;;;;;5098079;27;20060;-88
2022/12/10 02:41:06;;;;;;;59.65;26.35;;;-2.70;99.90;;;;;;5078015;28;20118;-88
2022/12/10 02:43:35;;;;;;;65.05;27.85;;;-2.70;99.90;;;;;;5078469;28;20043;-88
2022/12/10 02:46:16;;;;;;;57.15;24.52;;;-2.80;99.90;;;;;;5078546;28;20537;-89
2022/12/10 02:48:47;;;;;;;59.30;25.63;;;-2.70;99.90;;;;;;5080582;28;20040;-89
2022/12/10 02:51:19;;;;;;;59.53;26.83;;;-2.20;99.90;;;;;;5096437;28;20051;-89
2022/12/10 02:53:45;;;;;;;58.30;24.98;;;-2.90;99.90;;;;;;5098487;27;20039;-89
2022/12/10 02:56:28;;;;;;;55.10;24.90;;;-2.90;99.90;;;;;;5133209;27;20552;-89
2022/12/10 02:59:18;;;;;;;54.90;24.40;;;-2.80;99.90;;;;;;5115776;27;20052;-88
2022/12/10 03:02:27;;;;;;;57.20;24.48;;;-2.80;99.90;;;;;;5114969;27;20105;-89
2022/12/10 03:05:09;;;;;;;58.58;26.27;;;-2.80;99.90;;;;;;5042970;27;20126;-89
2022/12/10 03:07:56;;;;;;;62.10;26.83;;;-2.80;99.90;;;;;;5116317;27;20082;-88
2022/12/10 03:10:50;;;;;;;55.05;25.35;;;-2.90;99.90;;;;;;5110160;27;20188;-88
2022/12/10 03:13:22;;;;;;;57.33;26.23;;;-2.90;99.90;;;;;;5116140;27;20047;-87
2022/12/10 03:15:50;;;;;;;66.53;26.23;;;-3.00;99.90;;;;;;5115537;27;20039;-87
2022/12/10 03:18:20;;;;;;;57.00;26.13;;;-2.90;99.90;;;;;;5119114;27;20183;-87
2022/12/10 03:20:47;;;;;;;60.78;26.67;;;-3.00;99.90;;;;;;5119290;27;20047;-86
2022/12/10 03:23:16;;;;;;;57.13;26.13;;;-3.00;99.90;;;;;;5118584;27;20046;-87
2022/12/10 03:25:43;;;;;;;62.60;24.95;;;-3.00;99.90;;;;;;5135750;27;20125;-88
2022/12/10 03:28:09;;;;;;;61.08;26.25;;;-3.10;99.90;;;;;;5117571;27;20462;-87
2022/12/10 03:30:37;;;;;;;55.42;25.67;;;-2.10;99.90;;;;;;5119399;27;20130;-87
2022/12/10 03:33:03;;;;;;;56.85;25.65;;;-2.20;99.90;;;;;;5118549;27;20146;-87
2022/12/10 03:35:30;;;;;;;63.58;26.05;;;-3.10;99.90;;;;;;5117833;27;20057;-87
2022/12/10 03:37:55;;;;;;;64.03;27.67;;;-3.20;99.90;;;;;;5104955;27;20039;-88
2022/12/10 03:40:24;;;;;;;61.08;25.55;;;-3.10;99.90;;;;;;5098171;27;20064;-88
2022/12/10 03:43:00;;;;;;;61.42;26.85;;;-3.10;99.90;;;;;;5097769;27;20124;-88
2022/12/10 03:45:40;;;;;;;60.72;26.83;;;-2.10;99.90;;;;;;5094166;28;20192;-87
2022/12/10 03:48:16;;;;;;;65.07;25.98;;;-3.10;99.90;;;;;;5094065;28;20042;-87
2022/12/10 03:50:42;;;;;;;58.05;25.52;;;-3.40;99.90;;;;;;5094437;28;20502;-87
2022/12/10 03:53:07;;;;;;;65.55;26.08;;;-3.20;99.90;;;;;;5093899;28;20082;-86
2022/12/10 03:55:33;;;;;;;69.20;27.73;;;-3.20;99.90;;;;;;5088454;27;20122;-87
2022/12/10 03:58:01;;;;;;;56.22;26.65;;;-3.20;99.90;;;;;;5134343;27;20417;-87
2022/12/10 04:00:26;;;;;;;61.10;25.55;;;-2.90;99.90;;;;;;5117520;27;20046;-87
2022/12/10 04:02:52;;;;;;;64.72;26.92;;;-3.20;99.90;;;;;;5117686;27;20042;-87
2022/12/10 04:05:21;;;;;;;62.20;27.50;;;-3.20;99.90;;;;;;5117964;27;20034;-91
2022/12/10 04:07:47;;;;;;;64.05;26.70;;;-3.30;99.90;;;;;;5134439;27;20506;-87
2022/12/10 04:10:16;;;;;;;64.20;26.35;;;-3.20;99.90;;;;;;5110653;27;20039;-88
2022/12/10 04:12:41;;;;;;;61.90;26.02;;;-3.30;99.90;;;;;;5105057;28;20109;-87
2022/12/10 04:17:54;;;;;;;56.30;26.58;;;-3.30;99.90;;;;;;5111056;28;20610;-87
2022/12/10 04:28:31;;;;;;;60.28;27.63;;;-3.40;99.90;;;;;;5130736;27;20051;-87
2022/12/10 04:30:57;;;;;;;64.22;29.02;;;-3.40;99.90;;;;;;5112225;28;20039;-87
2022/12/10 04:33:23;;;;;;;59.33;25.90;;;-3.40;99.90;;;;;;5113195;27;20043;-87
2022/12/10 04:35:51;;;;;;;59.90;26.63;;;-3.40;99.90;;;;;;5109680;28;20130;-86
2022/12/10 04:38:17;;;;;;;65.55;28.08;;;-3.40;99.90;;;;;;5092086;28;20051;-87
2022/12/10 04:40:43;;;;;;;69.95;28.17;;;-3.40;99.90;;;;;;5073257;28;20044;-87
2022/12/10 04:43:09;;;;;;;66.63;28.27;;;-3.40;99.90;;;;;;5072110;28;20097;-86
2022/12/10 04:45:35;;;;;;;69.18;27.95;;;-3.40;99.90;;;;;;5073575;28;20059;-87
2022/12/10 04:48:01;;;;;;;63.63;28.05;;;-3.40;99.90;;;;;;5112473;27;20039;-86
2022/12/10 04:50:26;;;;;;;68.70;27.08;;;-3.40;99.90;;;;;;5111428;27;20068;-87
2022/12/10 04:52:52;;;;;;;66.22;29.40;;;-3.40;99.90;;;;;;5098584;27;20050;-87
2022/12/10 04:55:18;;;;;;;65.30;26.90;;;-2.20;99.90;;;;;;5115824;27;20039;-87
2022/12/10 04:57:46;;;;;;;65.32;27.58;;;-3.40;99.90;;;;;;5107199;28;20051;-87
2022/12/10 05:00:12;;;;;;;66.28;27.85;;;-2.30;99.90;;;;;;5091808;28;20054;-88
2022/12/10 05:02:41;;;;;;;62.17;28.00;;;-3.50;99.90;;;;;;5091863;28;20044;-88
2022/12/10 05:05:07;;;;;;;59.67;26.13;;;-3.50;99.90;;;;;;5092630;28;20044;-87
2022/12/10 05:07:32;;;;;;;60.17;26.38;;;-3.50;99.90;;;;;;5109359;28;20874;-88
2022/12/10 05:09:58;;;;;;;66.38;27.17;;;-3.50;99.90;;;;;;5091145;28;20051;-87
2022/12/10 05:12:24;;;;;;;62.28;26.15;;;-2.80;99.90;;;;;;5112493;27;20054;-87
2022/12/10 05:14:49;;;;;;;65.50;26.08;;;-3.50;99.90;;;;;;5111448;27;20039;-88
2022/12/10 05:17:15;;;;;;;64.75;29.42;;;-3.50;99.90;;;;;;5112070;27;20135;-87
2022/12/10 05:19:41;;;;;;;71.40;29.83;;;-3.50;99.90;;;;;;5113207;28;20039;-88
2022/12/10 05:24:54;;;;;;;59.65;26.17;;;-3.50;99.90;;;;;;5107756;28;20399;-86
2022/12/10 05:27:22;;;;;;;59.85;26.42;;;-3.50;99.90;;;;;;5088951;28;20482;-87
2022/12/10 05:29:48;;;;;;;71.55;29.75;;;-3.60;99.90;;;;;;5072194;28;20059;-88
2022/12/10 05:32:14;;;;;;;59.83;26.55;;;-3.60;99.90;;;;;;5088295;28;20044;-87
2022/12/10 05:34:39;;;;;;;64.90;27.30;;;-2.70;99.90;;;;;;5113769;27;20122;-88
2022/12/10 05:37:05;;;;;;;58.17;26.48;;;-3.50;99.90;;;;;;5088755;28;20040;-88
2022/12/10 05:39:30;;;;;;;67.03;26.90;;;-3.60;99.90;;;;;;5107560;28;20078;-88
2022/12/10 05:41:56;;;;;;;64.80;26.75;;;-4.50;99.90;;;;;;5126278;27;20043;-88
2022/12/10 05:44:24;;;;;;;65.72;27.50;;;-3.60;99.90;;;;;;5108919;28;20035;-88
2022/12/10 05:46:52;;;;;;;61.50;25.58;;;-3.60;99.90;;;;;;5109492;28;20508;-88
2022/12/10 05:49:18;;;;;;;61.83;26.63;;;-3.60;99.90;;;;;;5126357;27;20528;-87
2022/12/10 05:51:43;;;;;;;59.63;26.00;;;-3.60;99.90;;;;;;5093515;28;20079;-88
2022/12/10 05:54:09;;;;;;;58.67;25.77;;;-3.60;99.90;;;;;;5089525;28;20044;-88
2022/12/10 05:56:36;;;;;;;58.85;25.33;;;-3.60;99.90;;;;;;5125759;28;20058;-88
2022/12/10 05:59:03;;;;;;;62.92;27.58;;;-3.70;99.90;;;;;;5125869;27;20039;-88
2022/12/10 06:01:32;;;;;;;59.83;25.98;;;-3.70;99.90;;;;;;5124477;27;20040;-87
2022/12/10 06:04:03;;;;;;;63.45;26.98;;;-3.70;99.90;;;;;;5088571;28;20494;-87
2022/12/10 06:06:35;;;;;;;63.22;26.35;;;-3.70;99.90;;;;;;5089057;28;20043;-87
2022/12/10 06:09:01;;;;;;;59.67;27.35;;;-3.70;99.90;;;;;;5071505;28;20092;-87
2022/12/10 06:11:27;;;;;;;62.63;27.08;;;-3.70;99.90;;;;;;5064050;28;20135;-86
2022/12/10 06:13:54;;;;;;;64.10;28.27;;;-3.70;99.90;;;;;;5051334;28;20060;-87
2022/12/10 06:16:20;;;;;;;63.22;26.98;;;-3.70;99.90;;;;;;5051307;28;20052;-87
2022/12/10 06:18:46;;;;;;;63.00;26.75;;;-3.70;99.90;;;;;;5071941;28;20039;-87
2022/12/10 06:21:15;;;;;;;66.05;27.02;;;-3.70;99.90;;;;;;5087975;28;20048;-86
2022/12/10 06:23:41;;;;;;;60.80;27.20;;;-3.60;99.90;;;;;;5070950;28;20047;-86
2022/12/10 06:26:13;;;;;;;61.17;27.38;;;-3.70;99.90;;;;;;5087933;28;20059;-86
2022/12/10 06:28:43;;;;;;;63.08;27.88;;;-3.70;99.90;;;;;;5103531;28;20421;-88
2022/12/10 06:31:09;;;;;;;61.45;27.27;;;-3.60;99.90;;;;;;5107944;28;20075;-86
2022/12/10 06:33:37;;;;;;;65.63;28.40;;;-3.00;99.90;;;;;;5103200;28;20849;-87
2022/12/10 06:36:05;;;;;;;62.60;26.98;;;-3.70;99.90;;;;;;5071867;28;20410;-87
2022/12/10 06:38:31;;;;;;;64.00;26.33;;;-3.70;99.90;;;;;;5074509;28;20093;-86
2022/12/10 06:40:56;;;;;;;65.10;26.70;;;-3.70;99.90;;;;;;5054301;28;20226;-86
2022/12/10 06:43:22;;;;;;;63.70;25.85;;;-3.70;99.90;;;;;;5073882;28;20208;-87
2022/12/10 06:45:48;;;;;;;62.00;26.85;;;-3.70;99.90;;;;;;5094864;28;20051;-86
2022/12/10 06:48:16;;;;;;;67.45;30.05;;;-3.70;99.90;;;;;;5111684;28;20097;-87
2022/12/10 06:50:42;;;;;;;60.65;26.67;;;-3.70;99.90;;;;;;5098966;28;20068;-88
2022/12/10 06:53:07;;;;;;;65.28;27.75;;;-3.70;99.90;;;;;;5091409;28;20115;-88
2022/12/10 06:55:33;;;;;;;71.18;28.20;;;-3.70;99.90;;;;;;5074445;28;20060;-88
2022/12/10 06:57:58;;;;;;;64.13;27.15;;;-3.70;99.90;;;;;;5074282;28;20079;-87
2022/12/10 07:00:24;;;;;;;70.82;29.77;;;-2.90;99.90;;;;;;5102482;28;20120;-88
2022/12/10 07:02:50;;;;;;;66.50;27.75;;;-3.60;99.90;;;;;;5094353;28;20059;-88
2022/12/10 07:05:15;;;;;;;63.53;25.85;;;-3.70;99.90;;;;;;5084154;28;20494;-88
2022/12/10 07:07:42;;;;;;;66.50;28.48;;;-3.70;99.90;;;;;;5090748;28;20048;-88
2022/12/10 07:10:08;;;;;;;71.57;30.75;;;-3.20;99.90;;;;;;5085820;28;20058;-87
2022/12/10 07:12:34;;;;;;;65.72;27.55;;;-3.70;99.90;;;;;;5126794;27;20116;-87
2022/12/10 07:15:00;;;;;;;67.63;27.75;;;-3.70;99.90;;;;;;5090811;27;20107;-87
2022/12/10 07:17:26;;;;;;;65.32;27.15;;;-3.60;99.90;;;;;;5114370;27;20043;-87
2022/12/10 07:19:53;;;;;;;66.03;27.50;;;-3.60;99.90;;;;;;5111244;27;20827;-87
2022/12/10 07:22:18;;;;;;;66.95;28.58;;;-3.60;99.90;;;;;;5114945;27;20052;-88
2022/12/10 07:24:44;;;;;;;70.03;28.27;;;-2.70;99.90;;;;;;5102037;28;20039;-88
2022/12/10 07:27:09;;;;;;;71.15;27.75;;;-3.50;99.90;;;;;;5084191;28;20082;-87
2022/12/10 07:29:35;;;;;;;67.82;29.17;;;-3.50;99.90;;;;;;5075182;28;20051;-89
2022/12/10 07:32:01;;;;;;;66.03;29.58;;;-3.40;99.90;;;;;;5088089;28;20058;-88
2022/12/10 07:34:27;;;;;;;74.38;32.00;;;-3.40;99.90;;;;;;5075325;28;20039;-89
2022/12/10 07:36:53;;;;;;;72.30;32.45;;;-3.30;99.90;;;;;;5099638;28;20036;-87
2022/12/10 07:39:21;;;;;;;72.32;32.15;;;-3.20;99.90;;;;;;5090770;28;20076;-87
2022/12/10 07:41:52;;;;;;;71.90;28.98;;;-2.40;99.90;;;;;;5090451;28;20042;-88
2022/12/10 07:44:22;;;;;;;75.88;28.85;;;-2.80;99.90;;;;;;5067660;28;20056;-88
2022/12/10 07:46:49;;;;;;;72.32;29.95;;;-3.00;99.90;;;;;;5074831;28;20087;-87
2022/12/10 07:49:14;;;;;;;69.28;29.45;;;-2.90;99.90;;;;;;5073621;28;20040;-88
2022/12/10 07:51:44;;;;;;;80.88;30.90;;;-2.90;99.90;;;;;;5072951;28;20044;-87
2022/12/10 07:54:10;;;;;;;88.20;33.85;;;-2.80;99.90;;;;;;5088618;28;20040;-88
2022/12/10 07:56:35;;;;;;;74.20;31.35;;;-2.70;99.90;;;;;;5089544;28;20754;-87
2022/12/10 07:59:01;;;;;;;79.00;32.05;;;-2.70;99.90;;;;;;5090830;28;20076;-87
2022/12/10 08:01:27;;;;;;;76.75;31.77;;;-1.60;99.90;;;;;;5084572;28;20044;-88
2022/12/10 08:03:58;;;;;;;65.55;26.38;;;-2.50;99.90;;;;;;5090217;28;20149;-89
2022/12/10 08:06:28;;;;;;;83.28;31.90;;;-2.50;99.90;;;;;;5086477;28;20056;-89
2022/12/10 08:08:53;;;;;;;77.68;31.35;;;-2.50;99.90;;;;;;5095159;28;20149;-87
2022/12/10 08:11:22;;;;;;;75.13;30.45;;;-2.40;99.90;;;;;;5089905;28;20052;-89
2022/12/10 08:13:51;;;;;;;81.55;30.58;;;-2.40;99.90;;;;;;5099184;28;20082;-89
2022/12/10 08:16:22;;;;;;;84.93;30.42;;;-1.00;99.90;;;;;;5088268;28;20047;-86
2022/12/10 08:18:48;;;;;;;78.00;30.40;;;-2.20;99.90;;;;;;5084491;28;20780;-87
2022/12/10 08:21:19;;;;;;;73.57;31.38;;;-1.60;99.90;;;;;;5088036;28;20079;-88
2022/12/10 08:23:45;;;;;;;72.55;29.60;;;-2.20;99.90;;;;;;5083700;28;20050;-89
2022/12/10 08:26:17;;;;;;;74.80;28.95;;;-2.20;99.90;;;;;;5101237;28;20130;-88
2022/12/10 08:28:43;;;;;;;78.78;30.40;;;-2.20;99.90;;;;;;5096447;28;20493;-86
2022/12/10 08:31:11;;;;;;;73.13;31.08;;;-2.10;99.90;;;;;;5089103;28;20044;-83
2022/12/10 08:33:39;;;;;;;79.97;32.00;;;-2.10;99.90;;;;;;5103937;28;20047;-84
2022/12/10 08:36:08;;;;;;;72.28;31.10;;;-2.10;99.90;;;;;;5090209;28;20083;-83
2022/12/10 08:38:34;;;;;;;76.82;30.65;;;-2.10;99.90;;;;;;5096020;28;20047;-83
2022/12/10 08:41:08;;;;;;;75.80;30.45;;;-2.00;99.90;;;;;;5102691;28;20485;-82
2022/12/10 08:43:35;;;;;;;83.60;31.40;;;-2.00;99.90;;;;;;5085928;28;20047;-83
2022/12/10 08:46:00;;;;;;;70.03;28.83;;;-2.00;99.90;;;;;;5092017;28;20443;-83
2022/12/10 08:48:26;;;;;;;82.05;31.38;;;-2.00;99.90;;;;;;5089835;28;20077;-83
2022/12/10 08:50:52;;;;;;;75.40;30.17;;;-1.90;99.90;;;;;;5091303;28;20075;-83
2022/12/10 08:53:17;;;;;;;70.45;30.00;;;-1.90;99.90;;;;;;5083605;28;20093;-82
2022/12/10 08:55:48;;;;;;;81.38;31.92;;;-1.90;99.90;;;;;;5104079;28;20687;-82
2022/12/10 08:58:14;;;;;;;77.53;31.77;;;-1.90;99.90;;;;;;5103988;28;20043;-83
2022/12/10 09:00:40;;;;;;;76.03;31.33;;;-1.90;99.90;;;;;;5100144;28;20040;-82
2022/12/10 09:03:05;;;;;;;73.22;30.80;;;-1.90;99.90;;;;;;5099530;28;20153;-82
2022/12/10 09:05:31;;;;;;;74.55;30.10;;;-1.90;99.90;;;;;;5082987;28;20036;-83
2022/12/10 09:07:56;;;;;;;76.07;31.25;;;-1.80;99.90;;;;;;5086170;28;20044;-84
2022/12/10 09:10:22;;;;;;;80.80;30.40;;;-1.70;99.90;;;;;;5072630;28;20072;-84
2022/12/10 09:12:51;;;;;;;80.03;32.35;;;-1.70;99.90;;;;;;5105855;28;20059;-86
2022/12/10 09:15:16;;;;;;;81.82;31.05;;;-1.70;99.90;;;;;;5103296;28;20121;-86
2022/12/10 09:17:42;;;;;;;83.25;32.72;;;-1.60;99.90;;;;;;5099552;28;20075;-86
2022/12/10 09:20:08;;;;;;;86.25;32.60;;;-1.50;99.90;;;;;;5098149;28;20052;-84
2022/12/10 09:22:38;;;;;;;83.55;33.15;;;-1.50;99.90;;;;;;5087176;28;20567;-87
2022/12/10 09:25:06;;;;;;;88.32;32.80;;;-1.40;99.90;;;;;;5095517;28;20047;-84
2022/12/10 09:27:32;;;;;;;86.88;32.17;;;-1.40;99.90;;;;;;5086369;28;20448;-85
2022/12/10 09:29:58;;;;;;;86.07;33.17;;;-1.30;99.90;;;;;;5094355;28;20044;-85
2022/12/10 09:32:25;;;;;;;84.82;32.97;;;-1.30;99.90;;;;;;5103079;28;20051;-84
2022/12/10 09:34:51;;;;;;;81.78;32.88;;;-1.30;99.90;;;;;;5095822;28;20040;-85
2022/12/10 09:37:17;;;;;;;74.78;31.55;;;-1.20;99.90;;;;;;5085373;28;20056;-85
2022/12/10 09:39:43;;;;;;;80.40;31.85;;;-1.20;99.90;;;;;;5089674;28;20084;-85
2022/12/10 09:42:26;;;;;;;78.22;32.45;;;-1.20;99.90;;;;;;5099592;28;20088;-84
2022/12/10 09:45:02;;;;;;;82.03;33.67;;;-1.10;99.90;;;;;;5093578;28;20538;-83
2022/12/10 09:47:52;;;;;;;77.93;32.45;;;-1.10;99.90;;;;;;5086196;28;20510;-83
2022/12/10 09:50:36;;;;;;;69.22;28.90;;;-1.10;99.90;;;;;;5087180;28;20086;-83
2022/12/10 09:53:04;;;;;;;72.20;29.88;;;-1.10;99.90;;;;;;5083210;28;20478;-82
2022/12/10 09:55:38;;;;;;;73.28;30.95;;;-1.10;99.90;;;;;;5091066;28;20044;-82
2022/12/10 09:58:09;;;;;;;70.40;30.15;;;-1.00;99.90;;;;;;5105499;28;20417;-83
2022/12/10 10:00:44;;;;;;;71.35;29.95;;;-1.00;99.90;;;;;;5104018;28;20054;-83
2022/12/10 10:03:14;;;;;;;74.85;30.58;;;-1.10;99.90;;;;;;5099127;28;20390;-82
2022/12/10 10:05:46;;;;;;;74.97;30.52;;;-1.00;99.90;;;;;;5096754;28;20115;-83
2022/12/10 10:08:20;;;;;;;77.97;31.05;;;-1.00;99.90;;;;;;5086881;28;20112;-82
2022/12/10 10:10:47;;;;;;;73.63;30.33;;;-1.00;99.90;;;;;;5089089;28;20118;-83
2022/12/10 10:13:17;;;;;;;75.20;30.65;;;-1.00;99.90;;;;;;5083323;27;20055;-84
2022/12/10 10:15:44;;;;;;;71.03;29.45;;;-1.40;99.90;;;;;;5112041;27;20078;-84
2022/12/10 10:18:33;;;;;;;76.15;32.72;;;-1.00;99.90;;;;;;5126927;27;20043;-83
2022/12/10 10:21:00;;;;;;;81.53;32.20;;;-0.90;99.90;;;;;;5072169;28;20062;-83
2022/12/10 10:23:26;;;;;;;79.80;32.67;;;-0.90;99.90;;;;;;5072165;28;20490;-83
2022/12/10 10:25:52;;;;;;;81.15;32.80;;;-0.80;99.90;;;;;;5090912;28;20043;-83
2022/12/10 10:28:21;;;;;;;78.43;33.28;;;-0.80;99.90;;;;;;5086796;28;20047;-83
2022/12/10 10:30:47;;;;;;;76.70;31.65;;;-0.80;99.90;;;;;;5104342;28;20048;-83
2022/12/10 10:33:15;;;;;;;80.85;31.75;;;-0.80;99.90;;;;;;5092831;28;20044;-83
2022/12/10 10:35:47;;;;;;;76.70;31.02;;;-0.80;99.90;;;;;;5095807;28;20043;-84
2022/12/10 10:38:23;;;;;;;79.20;33.00;;;-0.80;99.90;;;;;;5092771;28;20508;-84
2022/12/10 10:40:56;;;;;;;75.15;30.88;;;-0.70;99.90;;;;;;5076802;28;20415;-84
2022/12/10 10:43:42;;;;;;;69.50;30.30;;;-0.70;99.90;;;;;;5092416;28;20044;-84
2022/12/10 10:46:23;;;;;;;76.45;31.25;;;-0.70;99.90;;;;;;5078423;28;20047;-85
2022/12/10 10:48:50;;;;;;;77.97;31.10;;;-0.60;99.90;;;;;;5090832;28;20053;-85
2022/12/10 10:51:20;;;;;;;78.45;31.95;;;-0.60;99.90;;;;;;5092679;28;20052;-85
2022/12/10 10:53:52;;;;;;;74.70;30.40;;;-0.60;99.90;;;;;;5092413;28;20044;-84
2022/12/10 10:56:20;;;;;;;;;;;-0.50;99.90;;;;;;5092461;28;20126;-84
2022/12/10 10:59:16;;;;;;;66.30;28.40;;;-0.60;99.90;;;;;;5110255;28;19919;-84
2022/12/10 11:01:48;;;;;;;72.38;29.95;;;-0.60;99.90;;;;;;5122040;27;20545;-83
2022/12/10 11:04:16;;;;;;;73.47;29.08;;;-0.60;99.90;;;;;;5110466;28;20043;-84
2022/12/10 11:06:43;;;;;;;76.28;30.83;;;-0.50;99.90;;;;;;5109376;28;20478;-84
2022/12/10 11:09:45;;;;;;;73.25;29.98;;;-0.60;99.90;;;;;;5097353;27;20544;-85
2022/12/10 11:12:28;;;;;;;72.75;29.55;;;-1.50;99.90;;;;;;5111041;27;20066;-84
2022/12/10 11:14:53;;;;;;;74.13;30.10;;;-0.60;99.90;;;;;;5119889;27;20054;-84
2022/12/10 11:17:22;;;;;;;83.47;34.15;;;-0.60;99.90;;;;;;5112494;27;20044;-84
2022/12/10 11:20:14;;;;;;;73.93;30.90;;;-0.60;99.90;;;;;;5106434;27;20039;-84
2022/12/10 11:22:53;;;;;;;77.43;30.95;;;-0.60;99.90;;;;;;5093185;28;20056;-84
2022/12/10 11:25:27;;;;;;;78.75;31.27;;;-0.50;99.90;;;;;;5097967;28;20048;-84
2022/12/10 11:28:02;;;;;;;74.13;30.27;;;-0.50;99.90;;;;;;5096565;27;20520;-84
2022/12/10 11:30:37;;;;;;;79.03;31.38;;;-0.60;99.90;;;;;;5108629;27;20043;-83
2022/12/10 11:33:10;;;;;;;76.95;30.38;;;-0.60;99.90;;;;;;5101188;28;20055;-85
2022/12/10 11:36:06;;;;;;;74.93;30.23;;;-0.50;99.90;;;;;;5091801;28;20516;-85
2022/12/10 11:38:48;;;;;;;72.28;29.92;;;-0.50;99.90;;;;;;5091413;28;20396;-84
2022/12/10 11:41:52;;;;;;;75.55;31.42;;;-0.50;99.90;;;;;;5089149;28;20047;-84
2022/12/10 11:45:13;;;;;;;74.43;29.60;;;-0.50;99.90;;;;;;5099393;28;20054;-85
2022/12/10 11:48:00;;;;;;;62.03;26.88;;;-0.60;99.90;;;;;;5062071;28;20075;-85
2022/12/10 11:50:29;;;;;;;66.78;27.30;;;-0.60;99.90;;;;;;5079495;28;20044;-84
2022/12/10 11:53:14;;;;;;;59.95;26.77;;;-0.60;99.90;;;;;;5077483;27;20499;-86
2022/12/10 11:55:54;;;;;;;66.20;26.85;;;-0.60;99.90;;;;;;5084036;27;20413;-85
2022/12/10 11:58:54;;;;;;;65.70;27.92;;;-0.50;99.90;;;;;;5097536;28;20272;-84
2022/12/10 12:01:44;;;;;;;76.57;33.95;;;-0.40;99.90;;;;;;5076583;28;20040;-84
2022/12/10 12:04:16;;;;;;;71.88;30.92;;;-0.40;99.90;;;;;;5075215;28;20051;-84
2022/12/10 12:07:13;;;;;;;79.23;33.67;;;-0.40;99.90;;;;;;5076482;28;20048;-85
2022/12/10 12:10:07;;;;;;;67.13;31.42;;;-0.30;99.90;;;;;;5087832;28;20040;-85
2022/12/10 12:12:51;;;;;;;62.92;27.77;;;-0.30;99.90;;;;;;5066398;28;20539;-85
2022/12/10 12:15:31;;;;;;;68.65;29.20;;;-0.30;99.90;;;;;;5092594;27;20047;-86
2022/12/10 12:18:14;;;;;;;74.20;30.35;;;-0.20;99.90;;;;;;5108258;27;20060;-84
2022/12/10 12:20:45;;;;;;;64.80;28.25;;;-0.20;99.90;;;;;;5129501;27;20039;-85
2022/12/10 12:23:32;;;;;;;66.10;27.73;;;-0.30;99.90;;;;;;5111387;27;20043;-86
2022/12/10 12:26:05;;;;;;;61.03;27.45;;;-0.20;99.90;;;;;;5097790;28;20040;-85
2022/12/10 12:28:50;;;;;;;68.32;28.80;;;-0.30;99.90;;;;;;5090332;28;20043;-85
2022/12/10 12:31:21;;;;;;;69.32;27.55;;;-0.40;99.90;;;;;;5089703;28;20157;-85
2022/12/10 12:33:56;;;;;;;66.65;28.08;;;-0.20;99.90;;;;;;5073107;28;20130;-86
2022/12/10 12:36:29;;;;;;;67.03;28.38;;;-0.20;99.90;;;;;;5106553;28;20536;-85
2022/12/10 12:39:01;;;;;;;59.17;28.35;;;;;;;;;;5102082;27;20039;-85
2022/12/10 12:42:00;;;;;;;73.85;29.52;;;0.00;99.90;;;;;;5128791;27;20074;-86
2022/12/10 12:44:37;;;;;;;67.25;29.35;;;0.30;99.90;;;;;;5077731;28;20050;-86
2022/12/10 12:47:22;;;;;;;66.93;27.88;;;;;;;;;;5090258;28;20096;-85
2022/12/10 12:49:49;;;;;;;68.13;28.23;;;0.00;99.90;;;;;;5108106;28;20044;-84
2022/12/10 12:52:35;;;;;;;68.82;30.77;;;;;;;;;;5106638;28;20063;-84
2022/12/10 12:55:04;;;;;;;75.78;28.17;;;;;;;;;;5073198;28;20059;-85
2022/12/10 12:57:30;;;;;;;79.82;30.20;;;;;;;;;;5107855;28;20051;-85
2022/12/10 13:00:10;;;;;;;73.53;31.63;;;;;;;;;;5089134;28;20044;-84
2022/12/10 13:03:10;;;;;;;69.30;29.30;;;-0.20;99.90;;;;;;5089489;28;20116;-84